createdAt,value
2018-09-25T00:00:34.668Z,83.80
2018-09-25T00:03:08.209Z,83.40
2018-09-25T00:05:41.808Z,83.50
2018-09-25T00:08:15.301Z,83.40
2018-09-25T00:10:48.752Z,83.10
2018-09-25T00:13:22.197Z,82.70
2018-09-25T00:15:55.704Z,83.20
2018-09-25T00:18:29.935Z,83.10
2018-09-25T00:23:39.173Z,82.50
2018-09-25T00:26:12.697Z,82.50
2018-09-25T00:28:52.587Z,82.40
2018-09-25T00:31:26.188Z,82.50
2018-09-25T00:33:59.571Z,82.10
2018-09-25T00:36:33.151Z,82.10
2018-09-25T00:39:06.783Z,82.10
2018-09-25T00:44:14.692Z,81.60
2018-09-25T00:46:48.509Z,81.50
2018-09-25T00:49:22.271Z,81.40
2018-09-25T00:51:55.747Z,81.30
2018-09-25T00:54:29.402Z,81.40
2018-09-25T00:59:36.355Z,81.30
2018-09-25T01:02:12.133Z,81.10
2018-09-25T01:04:45.521Z,81.20
2018-09-25T01:07:19.267Z,81.00
2018-09-25T01:09:52.752Z,81.20
2018-09-25T01:12:26.476Z,81.30
2018-09-25T01:15:00.365Z,81.40
2018-09-25T01:17:33.948Z,81.60
2018-09-25T01:22:41.082Z,81.60
2018-09-25T01:27:52.260Z,81.70
2018-09-25T01:30:25.956Z,81.90
2018-09-25T01:32:59.873Z,82.10
2018-09-25T01:35:36.372Z,82.10
2018-09-25T01:40:44.045Z,82.40
2018-09-25T01:45:52.380Z,83.00
2018-09-25T01:48:26.012Z,83.00
2018-09-25T01:50:59.677Z,83.10
2018-09-25T01:58:40.476Z,84.20
2018-09-25T02:01:13.985Z,84.40
2018-09-25T02:03:47.825Z,84.70
2018-09-25T02:06:21.488Z,84.40
2018-09-25T02:08:55.182Z,84.40
2018-09-25T02:11:28.844Z,84.40
2018-09-25T02:14:02.397Z,84.50
2018-09-25T02:16:36.191Z,84.60
2018-09-25T02:19:10.041Z,84.00
2018-09-25T02:24:17.514Z,84.40
2018-09-25T02:29:24.692Z,84.10
2018-09-25T02:31:58.510Z,84.10
2018-09-25T02:37:05.512Z,84.00
2018-09-25T02:39:39.063Z,84.40
2018-09-25T02:42:14.789Z,84.40
2018-09-25T02:44:48.388Z,84.00
2018-09-25T02:47:21.928Z,84.40
2018-09-25T02:49:56.436Z,84.30
2018-09-25T02:52:29.887Z,84.20
2018-09-25T02:55:03.464Z,84.00
2018-09-25T02:57:37.007Z,84.10
2018-09-25T03:00:10.671Z,84.10
2018-09-25T03:02:44.193Z,84.00
2018-09-25T03:07:52.040Z,84.10
2018-09-25T03:10:26.002Z,84.90
2018-09-25T03:12:59.885Z,84.70
2018-09-25T03:18:06.704Z,85.70
2018-09-25T03:20:40.562Z,86.00
2018-09-25T03:23:14.198Z,85.70
2018-09-25T03:28:21.317Z,85.70
2018-09-25T03:33:28.144Z,85.00
2018-09-25T03:36:02.727Z,84.80
2018-09-25T03:38:36.565Z,84.50
2018-09-25T03:43:43.775Z,84.40
2018-09-25T03:46:17.241Z,83.50
2018-09-25T03:48:50.816Z,83.60
2018-09-25T03:51:24.545Z,83.50
2018-09-25T03:53:58.051Z,83.70
2018-09-25T03:56:31.679Z,83.70
2018-09-25T03:59:05.369Z,83.60
2018-09-25T04:01:38.833Z,83.70
2018-09-25T04:04:12.462Z,83.50
2018-09-25T04:09:19.690Z,83.70
2018-09-25T04:11:53.224Z,83.60
2018-09-25T04:14:26.589Z,83.40
2018-09-25T04:17:00.077Z,83.40
2018-09-25T04:24:40.235Z,83.30
2018-09-25T04:27:13.966Z,83.00
2018-09-25T04:34:54.604Z,82.10
2018-09-25T04:42:35.279Z,81.70
2018-09-25T04:45:08.948Z,81.70
2018-09-25T04:47:42.471Z,82.10
2018-09-25T04:50:15.985Z,81.40
2018-09-25T04:55:22.860Z,81.60
2018-09-25T04:57:56.496Z,81.40
2018-09-25T05:00:30.909Z,81.60
2018-09-25T05:05:38.291Z,81.30
2018-09-25T05:08:12.119Z,81.40
2018-09-25T05:10:45.810Z,81.30
2018-09-25T05:15:53.211Z,80.90
2018-09-25T05:23:33.583Z,81.40
2018-09-25T05:31:13.927Z,81.30
2018-09-25T05:33:47.611Z,81.00
2018-09-25T05:36:21.272Z,80.90
2018-09-25T05:38:54.925Z,80.80
2018-09-25T05:41:28.519Z,80.60
2018-09-25T05:44:02.234Z,80.60
2018-09-25T05:46:35.660Z,80.00
2018-09-25T05:49:09.140Z,78.90
2018-09-25T05:51:42.796Z,78.20
2018-09-25T05:54:17.256Z,78.10
2018-09-25T05:56:51.015Z,77.70
2018-09-25T06:07:05.293Z,74.30
2018-09-25T06:09:38.791Z,74.70
2018-09-25T06:12:12.643Z,74.30
2018-09-25T06:14:46.475Z,73.40
2018-09-25T06:17:20.040Z,72.60
2018-09-25T06:19:53.519Z,72.00
2018-09-25T06:22:27.177Z,69.40
2018-09-25T06:25:00.772Z,69.20
2018-09-25T06:30:07.964Z,65.70
2018-09-25T06:32:41.675Z,62.80
2018-09-25T06:37:51.928Z,59.90
2018-09-25T06:40:25.556Z,57.50
2018-09-25T06:42:59.063Z,57.00
2018-09-25T06:45:32.664Z,54.70
2018-09-25T06:48:06.392Z,55.70
2018-09-25T06:50:39.724Z,55.30
2018-09-25T06:53:13.508Z,54.90
2018-09-25T06:55:47.412Z,54.90
2018-09-25T06:58:21.105Z,54.10
2018-09-25T07:00:54.725Z,51.90
2018-09-25T07:03:28.153Z,52.40
2018-09-25T07:06:01.806Z,52.90
2018-09-25T07:11:12.705Z,53.40
2018-09-25T07:13:46.230Z,53.10
2018-09-25T07:16:19.983Z,49.80
2018-09-25T07:18:53.531Z,48.30
2018-09-25T07:21:26.963Z,46.70
2018-09-25T07:24:00.759Z,46.50
2018-09-25T07:26:34.299Z,44.30
2018-09-25T07:31:42.460Z,45.60
2018-09-25T07:34:16.053Z,45.30
2018-09-25T07:36:49.495Z,45.50
2018-09-25T07:39:23.287Z,45.00
2018-09-25T07:41:56.732Z,44.50
2018-09-25T07:44:31.209Z,43.90
2018-09-25T07:47:05.249Z,44.10
2018-09-25T07:49:38.744Z,42.50
2018-09-25T07:52:12.523Z,42.60
2018-09-25T07:57:19.707Z,41.20
2018-09-25T07:59:53.129Z,41.90
2018-09-25T08:02:26.975Z,42.00
2018-09-25T08:05:00.310Z,41.00
2018-09-25T08:07:34.105Z,41.00
2018-09-25T08:10:07.423Z,40.50
2018-09-25T08:12:42.175Z,39.30
2018-09-25T08:15:15.808Z,38.80
2018-09-25T08:17:49.428Z,38.60
2018-09-25T08:20:23.016Z,38.60
2018-09-25T08:22:58.834Z,38.40
2018-09-25T08:25:32.239Z,38.00
2018-09-25T08:28:05.863Z,36.90
2018-09-25T08:30:39.616Z,37.70
2018-09-25T08:35:46.776Z,35.80
2018-09-25T08:38:20.335Z,36.10
2018-09-25T08:40:53.923Z,35.00
2018-09-25T08:43:27.484Z,34.20
2018-09-25T08:46:01.139Z,33.50
2018-09-25T08:48:35.587Z,32.90
2018-09-25T08:56:15.505Z,34.40
2018-09-25T09:01:22.546Z,33.80
2018-09-25T09:03:55.997Z,34.60
2018-09-25T09:06:29.652Z,35.00
2018-09-25T09:09:03.220Z,34.60
2018-09-25T09:11:36.828Z,34.30
2018-09-25T09:14:10.440Z,33.80
2018-09-25T09:19:17.995Z,33.10
2018-09-25T09:21:52.414Z,32.10
2018-09-25T09:26:59.420Z,31.30
2018-09-25T09:34:39.830Z,32.30
2018-09-25T09:42:20.367Z,32.90
2018-09-25T09:44:54.091Z,32.30
2018-09-25T09:47:27.903Z,32.20
2018-09-25T09:50:03.651Z,31.30
2018-09-25T09:52:37.190Z,30.80
2018-09-25T09:57:44.160Z,31.60
2018-09-25T10:00:17.712Z,31.50
2018-09-25T10:05:24.360Z,32.00
2018-09-25T10:10:31.484Z,30.10
2018-09-25T10:13:05.083Z,30.30
2018-09-25T10:15:38.736Z,30.10
2018-09-25T10:18:12.282Z,30.60
2018-09-25T10:20:45.773Z,29.90
2018-09-25T10:23:19.432Z,29.20
2018-09-25T10:30:59.566Z,29.50
2018-09-25T10:33:33.213Z,29.70
2018-09-25T10:36:06.748Z,30.10
2018-09-25T10:38:40.316Z,29.50
2018-09-25T10:41:14.838Z,29.60
2018-09-25T10:46:21.941Z,30.30
2018-09-25T10:48:55.475Z,30.50
2018-09-25T10:51:29.084Z,31.60
2018-09-25T10:54:02.689Z,31.30
2018-09-25T10:56:36.292Z,31.10
2018-09-25T10:59:09.937Z,31.40
2018-09-25T11:01:43.547Z,31.60
2018-09-25T11:04:17.495Z,32.70
2018-09-25T11:06:51.004Z,33.90
2018-09-25T11:11:57.999Z,33.80
2018-09-25T11:14:31.437Z,33.60
2018-09-25T11:17:05.129Z,33.40
2018-09-25T11:19:38.568Z,34.10
2018-09-25T11:22:12.351Z,33.60
2018-09-25T11:24:45.877Z,34.20
2018-09-25T11:27:19.399Z,33.90
2018-09-25T11:29:53.136Z,34.60
2018-09-25T11:32:26.735Z,34.60
2018-09-25T11:37:33.620Z,33.50
2018-09-25T11:40:07.064Z,33.20
2018-09-25T11:42:40.856Z,33.70
2018-09-25T11:45:14.324Z,34.00
2018-09-25T11:47:48.060Z,34.20
2018-09-25T11:50:21.655Z,33.80
2018-09-25T11:52:55.352Z,33.80
2018-09-25T11:55:29.321Z,33.80
2018-09-25T12:05:43.495Z,34.80
2018-09-25T12:08:17.247Z,35.80
2018-09-25T12:10:50.687Z,35.80
2018-09-25T12:13:24.347Z,35.90
2018-09-25T12:15:57.935Z,35.90
2018-09-25T12:18:31.616Z,36.70
2018-09-25T12:21:05.161Z,37.00
2018-09-25T12:23:38.780Z,37.10
2018-09-25T12:28:45.837Z,38.10
2018-09-25T12:31:19.537Z,38.30
2018-09-25T12:33:53.344Z,39.50
2018-09-25T12:36:27.161Z,38.70
2018-09-25T12:44:07.523Z,38.80
2018-09-25T12:46:41.182Z,38.70
2018-09-25T12:49:14.797Z,38.30
2018-09-25T12:51:48.465Z,38.00
2018-09-25T12:54:21.921Z,38.10
2018-09-25T12:56:55.516Z,37.60
2018-09-25T12:59:29.198Z,36.00
2018-09-25T13:02:02.737Z,36.80
2018-09-25T13:04:36.262Z,36.90
2018-09-25T13:09:43.605Z,36.90
2018-09-25T13:12:17.104Z,36.90
2018-09-25T13:14:50.688Z,37.30
2018-09-25T13:17:24.384Z,36.70
2018-09-25T13:22:31.335Z,37.00
2018-09-25T13:25:04.872Z,36.90
2018-09-25T13:27:38.457Z,36.10
2018-09-25T13:30:12.031Z,35.40
2018-09-25T13:35:19.698Z,36.20
2018-09-25T13:37:53.336Z,37.00
2018-09-25T13:43:00.132Z,37.50
2018-09-25T13:45:33.676Z,37.70
2018-09-25T13:48:07.368Z,38.20
2018-09-25T13:50:40.833Z,38.10
2018-09-25T13:53:14.403Z,38.30
2018-09-25T13:55:48.036Z,38.70
2018-09-25T13:58:21.664Z,38.50
2018-09-25T14:00:55.273Z,39.10
2018-09-25T14:03:28.787Z,39.40
2018-09-25T14:06:02.461Z,39.20
2018-09-25T14:08:36.044Z,40.20
2018-09-25T14:11:09.827Z,39.70
2018-09-25T14:13:43.620Z,39.60
2018-09-25T14:21:23.753Z,39.30
2018-09-25T14:23:57.016Z,40.30
2018-09-25T14:26:30.731Z,40.20
2018-09-25T14:29:04.311Z,40.30
2018-09-25T14:31:37.875Z,40.50
2018-09-25T14:34:11.373Z,40.30
2018-09-25T14:36:45.072Z,40.50
2018-09-25T14:41:52.553Z,40.40
2018-09-25T14:44:26.245Z,40.50
2018-09-25T14:47:00.403Z,40.70
2018-09-25T14:49:34.692Z,41.10
2018-09-25T14:52:08.309Z,40.90
2018-09-25T14:54:41.891Z,40.90
2018-09-25T14:59:48.640Z,41.30
2018-09-25T15:09:33.364Z,43.30
2018-09-25T15:17:13.464Z,43.60
2018-09-25T15:19:47.219Z,43.50
2018-09-25T15:22:21.497Z,43.60
2018-09-25T15:24:54.807Z,43.40
2018-09-25T15:27:28.529Z,43.50
2018-09-25T15:30:02.036Z,43.10
2018-09-25T15:32:35.634Z,43.50
2018-09-25T15:35:09.301Z,43.60
2018-09-25T15:37:42.983Z,43.70
2018-09-25T15:40:16.487Z,44.30
2018-09-25T15:42:50.053Z,44.30
2018-09-25T15:45:23.570Z,44.40
2018-09-25T15:47:57.342Z,44.50
2018-09-25T15:50:32.104Z,45.20
2018-09-25T15:53:05.751Z,45.20
2018-09-25T15:55:39.341Z,45.10
2018-09-25T15:58:12.920Z,45.40
2018-09-25T16:00:46.575Z,45.30
2018-09-25T16:05:53.769Z,45.00
2018-09-25T16:08:27.329Z,45.00
2018-09-25T16:11:00.799Z,44.70
2018-09-25T16:18:42.310Z,45.00
2018-09-25T16:21:15.841Z,45.10
2018-09-25T16:23:49.569Z,45.50
2018-09-25T16:28:56.456Z,46.50
2018-09-25T16:31:29.793Z,46.90
2018-09-25T16:34:03.240Z,47.20
2018-09-25T16:39:13.639Z,47.70
2018-09-25T16:41:50.410Z,48.20
2018-09-25T16:44:25.104Z,47.90
2018-09-25T16:46:58.820Z,48.60
2018-09-25T16:52:05.909Z,48.90
2018-09-25T16:59:47.472Z,49.90
2018-09-25T17:02:21.350Z,50.20
2018-09-25T17:04:54.746Z,50.30
2018-09-25T17:10:01.464Z,50.60
2018-09-25T17:12:34.992Z,50.30
2018-09-25T17:17:42.120Z,50.40
2018-09-25T17:22:49.139Z,50.60
2018-09-25T17:25:22.731Z,50.10
2018-09-25T17:30:30.065Z,50.40
2018-09-25T17:33:03.503Z,50.30
2018-09-25T17:35:37.264Z,50.70
2018-09-25T17:38:11.078Z,50.80
2018-09-25T17:43:18.007Z,50.80
2018-09-25T17:45:51.629Z,50.70
2018-09-25T17:48:25.112Z,51.00
2018-09-25T17:50:58.650Z,50.60
2018-09-25T17:53:32.427Z,50.60
2018-09-25T17:56:05.926Z,50.50
2018-09-25T17:58:39.399Z,50.70
2018-09-25T18:01:13.272Z,50.70
2018-09-25T18:03:46.872Z,50.50
2018-09-25T18:11:27.884Z,51.70
2018-09-25T18:14:01.613Z,51.40
2018-09-25T18:19:08.364Z,51.30
2018-09-25T18:21:41.929Z,51.40
2018-09-25T18:26:48.591Z,51.60
2018-09-25T18:29:22.063Z,51.50
2018-09-25T18:31:55.868Z,51.60
2018-09-25T18:34:29.382Z,51.60
2018-09-25T18:37:03.072Z,51.00
2018-09-25T18:39:36.681Z,50.90
2018-09-25T18:42:10.154Z,50.40
2018-09-25T18:44:43.764Z,50.70
2018-09-25T18:47:17.404Z,51.00
2018-09-25T18:49:51.028Z,51.20
2018-09-25T18:52:25.793Z,50.90
2018-09-25T18:57:33.045Z,50.50
2018-09-25T19:00:06.737Z,51.00
2018-09-25T19:02:40.394Z,51.40
2018-09-25T19:07:47.274Z,51.20
2018-09-25T19:10:21.011Z,50.80
2018-09-25T19:12:54.605Z,50.70
2018-09-25T19:15:28.272Z,51.30
2018-09-25T19:18:01.813Z,51.40
2018-09-25T19:20:35.504Z,51.20
2018-09-25T19:25:42.361Z,51.30
2018-09-25T19:28:16.011Z,51.40
2018-09-25T19:30:49.540Z,51.90
2018-09-25T19:35:57.423Z,51.80
2018-09-25T19:38:30.928Z,52.20
2018-09-25T19:41:04.584Z,52.20
2018-09-25T19:43:38.167Z,51.90
2018-09-25T19:46:11.686Z,51.50
2018-09-25T19:48:45.353Z,52.00
2018-09-25T19:51:18.895Z,52.60
2018-09-25T19:53:53.530Z,53.10
2018-09-25T19:56:27.287Z,53.60
2018-09-25T19:59:01.067Z,53.80
2018-09-25T20:01:34.523Z,53.80
2018-09-25T20:04:07.973Z,53.40
2018-09-25T20:09:15.079Z,53.60
2018-09-25T20:11:48.607Z,53.40
2018-09-25T20:16:55.825Z,53.60
2018-09-25T20:19:30.656Z,53.50
2018-09-25T20:24:37.295Z,53.70
2018-09-25T20:29:44.132Z,53.60
2018-09-25T20:32:17.824Z,54.10
2018-09-25T20:34:51.408Z,54.20
2018-09-25T20:39:58.538Z,54.80
2018-09-25T20:42:32.157Z,55.40
2018-09-25T20:45:05.474Z,55.30
2018-09-25T20:47:39.179Z,55.00
2018-09-25T20:52:46.228Z,55.90
2018-09-25T20:55:19.784Z,55.90
2018-09-25T21:00:26.680Z,55.50
2018-09-25T21:03:00.408Z,56.10
2018-09-25T21:08:07.416Z,56.80
2018-09-25T21:10:41.119Z,57.10
2018-09-25T21:13:14.804Z,57.30
2018-09-25T21:15:48.348Z,56.80
2018-09-25T21:20:56.503Z,55.90
2018-09-25T21:26:03.467Z,56.90
2018-09-25T21:28:36.821Z,57.50
2018-09-25T21:31:10.623Z,58.30
2018-09-25T21:33:44.140Z,58.40
2018-09-25T21:36:17.790Z,58.60
2018-09-25T21:38:51.553Z,59.30
2018-09-25T21:41:25.400Z,59.60
2018-09-25T21:46:32.153Z,59.80
2018-09-25T21:49:05.874Z,60.00
2018-09-25T21:51:39.510Z,60.20
2018-09-25T21:54:13.044Z,60.00
2018-09-25T21:56:46.653Z,60.40
2018-09-25T21:59:20.127Z,60.20
2018-09-25T22:01:53.856Z,60.40
2018-09-25T22:04:28.584Z,60.40
2018-09-25T22:07:02.075Z,60.80
2018-09-25T22:09:35.784Z,60.40
2018-09-25T22:12:09.387Z,60.10
2018-09-25T22:14:43.098Z,60.00
2018-09-25T22:17:16.501Z,60.60
2018-09-25T22:19:50.439Z,60.20
2018-09-25T22:22:24.170Z,60.10
2018-09-25T22:24:58.008Z,60.20
2018-09-25T22:27:31.875Z,60.20
2018-09-25T22:32:39.432Z,62.00
2018-09-25T22:35:13.377Z,62.30
2018-09-25T22:37:47.167Z,62.40
2018-09-25T22:40:22.255Z,61.50
2018-09-25T22:42:56.333Z,60.40
2018-09-25T22:48:04.025Z,60.40
2018-09-25T22:55:45.820Z,61.20
2018-09-25T22:58:19.655Z,61.30
2018-09-25T23:00:53.547Z,61.80
2018-09-25T23:06:00.947Z,62.10
2018-09-25T23:08:34.443Z,61.80
2018-09-25T23:11:08.002Z,62.60
2018-09-25T23:16:15.018Z,61.60
2018-09-25T23:18:48.543Z,60.60
2018-09-25T23:21:22.045Z,60.70
2018-09-25T23:29:02.559Z,62.90
2018-09-25T23:31:36.214Z,62.70
2018-09-25T23:34:10.936Z,62.50
2018-09-25T23:36:44.660Z,63.20
2018-09-25T23:39:17.545Z,64.10
2018-09-25T23:42:09.200Z,64.60
2018-09-25T23:44:45.507Z,65.20
2018-09-25T23:50:31.504Z,66.40
2018-09-25T23:53:05.258Z,66.70
2018-09-25T23:55:40.779Z,66.90
2018-09-25T23:58:13.540Z,67.00
